Time;durP1;ratioP1;P1;durP2;ratioP2;P2;SDS_P1;SDS_P2;PMS_P1;PMS_P2;Temp;Humidity;BMP_temperature;BMP_pressure;BME280_temperature;BME280_humidity;BME280_pressure;Samples;Min_cycle;Max_cycle;Signal;HPM_P1;HPM_P2
2023/07/14 00:01:24;;;;;;;7.85;4.50;;;16.30;99.90;;;;;;4974686;28;20126;-75
2023/07/14 00:03:51;;;;;;;8.57;5.63;;;16.30;99.90;;;;;;4974792;28;20275;-74
2023/07/14 00:06:17;;;;;;;7.57;4.30;;;16.20;99.90;;;;;;4975107;28;20391;-75
2023/07/14 00:08:45;;;;;;;6.78;3.92;;;16.10;99.90;;;;;;4973342;28;20038;-74
2023/07/14 00:11:22;;;;;;;7.53;3.95;;;16.00;99.90;;;;;;4974975;28;20122;-74
2023/07/14 00:13:50;;;;;;;8.88;4.20;;;16.00;99.90;;;;;;4974547;28;20101;-74
2023/07/14 00:16:19;;;;;;;7.68;4.10;;;16.00;99.90;;;;;;4974651;28;20043;-74
2023/07/14 00:18:46;;;;;;;6.10;3.70;;;16.00;99.90;;;;;;4974721;28;20049;-75
2023/07/14 00:21:23;;;;;;;6.80;3.75;;;16.00;99.90;;;;;;4972688;28;20049;-75
2023/07/14 00:23:54;;;;;;;6.88;3.92;;;16.00;99.90;;;;;;4974490;28;20039;-74
2023/07/14 00:26:20;;;;;;;6.93;3.55;;;16.00;99.90;;;;;;4974366;28;20039;-74
2023/07/14 00:28:50;;;;;;;7.40;4.03;;;16.00;99.90;;;;;;4974338;28;20129;-74
2023/07/14 00:31:19;;;;;;;10.35;6.85;;;16.00;99.90;;;;;;4973406;28;20049;-75
2023/07/14 00:33:49;;;;;;;7.43;4.18;;;16.00;99.90;;;;;;4974290;28;20113;-74
2023/07/14 00:36:17;;;;;;;8.15;4.05;;;15.90;99.90;;;;;;4974264;28;20039;-75
2023/07/14 00:38:43;;;;;;;7.97;4.30;;;15.90;99.90;;;;;;4973141;28;20066;-74
2023/07/14 00:41:19;;;;;;;8.77;4.20;;;15.90;99.90;;;;;;4974325;28;20039;-75
2023/07/14 00:43:45;;;;;;;5.95;3.88;;;15.90;99.90;;;;;;4974365;28;20121;-74
2023/07/14 00:46:32;;;;;;;6.07;4.20;;;15.90;99.90;;;;;;4974252;28;20054;-75
2023/07/14 00:49:06;;;;;;;7.15;3.90;;;15.90;99.90;;;;;;4974475;28;20117;-74
2023/07/14 00:51:35;;;;;;;8.48;3.90;;;15.90;99.90;;;;;;4972837;28;20109;-75
2023/07/14 00:54:02;;;;;;;7.13;3.90;;;15.90;99.90;;;;;;4974192;28;20049;-74
2023/07/14 00:56:33;;;;;;;7.93;5.35;;;15.90;99.90;;;;;;4941037;28;20110;-75
2023/07/14 00:59:00;;;;;;;6.55;4.13;;;15.80;99.90;;;;;;4974394;28;20043;-75
2023/07/14 01:01:27;;;;;;;7.30;3.92;;;15.80;99.90;;;;;;4973156;28;20499;-75
2023/07/14 01:03:55;;;;;;;8.27;4.50;;;15.80;99.90;;;;;;4974095;28;20086;-74
2023/07/14 01:06:38;;;;;;;15.23;9.88;;;15.80;99.90;;;;;;4973936;28;20046;-74
2023/07/14 01:09:14;;;;;;;11.05;7.50;;;15.70;99.90;;;;;;4974223;28;20051;-74
2023/07/14 01:11:54;;;;;;;7.72;4.40;;;15.60;99.90;;;;;;4974350;28;20491;-74
2023/07/14 01:14:31;;;;;;;8.32;4.43;;;15.50;99.90;;;;;;4973847;28;20057;-74
2023/07/14 01:16:58;;;;;;;7.75;4.63;;;15.50;99.90;;;;;;4973965;28;20057;-74
2023/07/14 01:19:45;;;;;;;7.60;4.78;;;15.50;99.90;;;;;;4972792;28;20042;-74
2023/07/14 01:22:36;;;;;;;8.40;5.30;;;15.60;99.90;;;;;;4972930;28;20050;-74
2023/07/14 01:25:36;;;;;;;8.30;4.97;;;15.60;99.90;;;;;;4974125;28;20148;-74
2023/07/14 01:28:07;;;;;;;7.85;5.00;;;15.50;99.90;;;;;;4956611;28;20054;-75
2023/07/14 01:30:35;;;;;;;10.07;5.10;;;15.60;99.90;;;;;;4974065;28;20047;-75
2023/07/14 01:33:00;;;;;;;8.73;5.38;;;15.60;99.90;;;;;;4976759;28;20047;-75
2023/07/14 01:35:39;;;;;;;8.63;5.80;;;15.50;99.90;;;;;;4976276;28;20501;-75
2023/07/14 01:38:06;;;;;;;9.63;5.50;;;15.60;99.90;;;;;;4976370;28;20070;-74
2023/07/14 01:40:33;;;;;;;9.70;6.28;;;15.50;99.90;;;;;;4977727;28;20049;-74
2023/07/14 01:43:03;;;;;;;10.93;6.35;;;15.60;99.90;;;;;;4977654;28;20051;-75
2023/07/14 01:45:43;;;;;;;8.68;5.10;;;15.50;99.90;;;;;;4975957;28;20086;-75
2023/07/14 01:48:12;;;;;;;9.93;5.18;;;15.50;99.90;;;;;;4976053;28;20049;-75
2023/07/14 01:50:44;;;;;;;9.93;5.35;;;15.50;99.90;;;;;;4977229;28;20051;-75
2023/07/14 01:53:46;;;;;;;8.93;6.20;;;15.50;99.90;;;;;;4977045;28;20043;-75
2023/07/14 01:56:16;;;;;;;9.05;5.93;;;15.50;99.90;;;;;;4917577;29;20032;-75
2023/07/14 01:59:08;;;;;;;11.48;7.20;;;15.50;99.90;;;;;;4966148;28;20051;-75
2023/07/14 02:01:35;;;;;;;11.27;8.50;;;15.40;99.90;;;;;;4977268;28;20121;-74
2023/07/14 02:04:05;;;;;;;13.02;5.95;;;15.30;99.90;;;;;;4975792;28;20126;-75
2023/07/14 02:06:32;;;;;;;11.95;9.07;;;15.20;99.90;;;;;;4977398;28;20125;-75
2023/07/14 02:08:59;;;;;;;13.68;9.18;;;15.10;99.90;;;;;;4977107;28;20043;-74
2023/07/14 02:11:26;;;;;;;12.43;8.00;;;15.10;99.90;;;;;;4975614;28;20082;-76
2023/07/14 02:13:55;;;;;;;12.48;10.50;;;15.00;99.90;;;;;;4975422;28;20058;-75
2023/07/14 02:16:22;;;;;;;10.07;6.43;;;14.90;99.90;;;;;;4976611;28;20038;-76
2023/07/14 02:18:49;;;;;;;12.15;8.88;;;14.80;99.90;;;;;;4976727;28;20047;-75
2023/07/14 02:21:23;;;;;;;12.18;9.77;;;14.80;99.90;;;;;;4976871;28;20109;-73
2023/07/14 02:23:50;;;;;;;14.73;11.57;;;14.80;99.90;;;;;;4975599;28;20126;-74
2023/07/14 02:26:37;;;;;;;10.75;6.72;;;14.80;99.90;;;;;;4976847;28;20527;-73
2023/07/14 02:29:09;;;;;;;8.65;5.38;;;14.70;99.90;;;;;;4976398;28;20045;-73
2023/07/14 02:31:41;;;;;;;;;;;14.70;99.90;;;;;;4975690;28;20043;-73
2023/07/14 02:34:11;;;;;;;10.63;7.03;;;14.70;99.90;;;;;;4976680;28;19918;-74
2023/07/14 02:36:57;;;;;;;11.50;8.43;;;14.70;99.90;;;;;;4976714;28;20126;-74
2023/07/14 02:39:24;;;;;;;9.77;5.97;;;14.70;99.90;;;;;;4976386;28;20077;-74
2023/07/14 02:41:53;;;;;;;10.80;8.00;;;14.70;99.90;;;;;;4976555;28;20447;-74
2023/07/14 02:44:21;;;;;;;9.13;7.43;;;14.70;99.90;;;;;;4974512;28;20051;-74
2023/07/14 02:47:00;;;;;;;12.13;8.88;;;14.70;99.90;;;;;;4959446;28;20491;-74
2023/07/14 02:49:26;;;;;;;12.95;10.05;;;14.60;99.90;;;;;;4975983;28;20043;-74
2023/07/14 02:51:52;;;;;;;8.73;5.63;;;14.60;99.90;;;;;;4976395;28;20035;-73
2023/07/14 02:54:17;;;;;;;10.50;7.35;;;14.60;99.90;;;;;;4975934;28;20042;-74
2023/07/14 02:56:43;;;;;;;8.18;5.18;;;14.50;99.90;;;;;;4976298;28;20038;-74
2023/07/14 02:59:12;;;;;;;8.75;5.30;;;14.60;99.90;;;;;;4974772;28;20125;-74
2023/07/14 03:01:38;;;;;;;12.68;9.73;;;14.60;99.90;;;;;;4976189;28;20039;-75
2023/07/14 03:04:04;;;;;;;10.45;7.97;;;14.60;99.90;;;;;;4976132;28;20049;-75
2023/07/14 03:06:31;;;;;;;13.45;9.05;;;14.50;99.90;;;;;;4958825;28;20038;-75
2023/07/14 03:08:57;;;;;;;10.20;6.22;;;14.50;99.90;;;;;;4958495;28;20046;-74
2023/07/14 03:11:23;;;;;;;9.57;5.55;;;14.40;99.90;;;;;;4975875;28;20114;-75
2023/07/14 03:13:49;;;;;;;8.85;5.85;;;14.40;99.90;;;;;;4975562;28;20055;-74
2023/07/14 03:16:15;;;;;;;13.57;10.43;;;14.30;99.90;;;;;;4975926;28;20039;-75
2023/07/14 03:18:41;;;;;;;14.18;10.65;;;14.30;99.90;;;;;;4975832;28;20043;-75
2023/07/14 03:21:08;;;;;;;8.55;5.90;;;14.30;99.90;;;;;;4975567;28;20101;-74
2023/07/14 03:23:34;;;;;;;9.50;7.53;;;14.30;99.90;;;;;;4975469;28;20045;-75
2023/07/14 03:26:08;;;;;;;9.18;7.28;;;14.30;99.90;;;;;;4974123;28;20042;-74
2023/07/14 03:28:37;;;;;;;13.30;9.23;;;14.30;99.90;;;;;;4974620;28;20387;-75
2023/07/14 03:31:04;;;;;;;8.40;6.07;;;14.30;99.90;;;;;;4975217;28;20042;-75
2023/07/14 03:33:32;;;;;;;9.13;6.00;;;14.30;99.90;;;;;;4975679;28;20473;-74
2023/07/14 03:36:08;;;;;;;12.90;9.88;;;14.30;99.90;;;;;;4974351;28;20109;-74
2023/07/14 03:38:40;;;;;;;12.23;8.70;;;14.30;99.90;;;;;;4974201;28;20047;-74
2023/07/14 03:41:05;;;;;;;8.32;5.50;;;14.30;99.90;;;;;;4974305;28;20034;-74
2023/07/14 03:43:31;;;;;;;11.65;8.18;;;14.30;99.90;;;;;;4975369;28;20479;-74
2023/07/14 03:45:57;;;;;;;10.90;7.68;;;14.30;99.90;;;;;;4975373;28;20097;-75
2023/07/14 03:48:23;;;;;;;12.10;7.53;;;14.30;99.90;;;;;;4975337;28;20035;-75
2023/07/14 03:50:49;;;;;;;7.40;5.28;;;14.30;99.90;;;;;;4975232;28;20049;-75
2023/07/14 03:53:15;;;;;;;7.95;5.30;;;14.30;99.90;;;;;;4975240;28;20529;-75
2023/07/14 03:55:41;;;;;;;10.95;7.45;;;14.30;99.90;;;;;;4974273;28;20046;-75
2023/07/14 03:58:06;;;;;;;10.57;7.82;;;14.40;99.90;;;;;;4974832;28;20038;-75
2023/07/14 04:00:32;;;;;;;8.68;5.97;;;14.40;99.90;;;;;;4975089;28;20047;-75
2023/07/14 04:02:59;;;;;;;11.63;8.10;;;14.40;99.90;;;;;;4974775;28;20050;-75
2023/07/14 04:05:25;;;;;;;8.88;5.97;;;14.50;99.90;;;;;;4975001;28;20126;-75
2023/07/14 04:07:51;;;;;;;7.78;5.57;;;14.50;99.90;;;;;;4975007;28;20578;-75
2023/07/14 04:10:18;;;;;;;13.75;10.60;;;14.50;99.90;;;;;;4974588;28;20043;-75
2023/07/14 04:12:47;;;;;;;10.30;7.15;;;14.60;99.90;;;;;;4973491;28;20082;-74
2023/07/14 04:15:13;;;;;;;13.65;9.70;;;14.60;99.90;;;;;;4974638;28;20124;-75
2023/07/14 04:17:40;;;;;;;10.40;7.13;;;14.60;99.90;;;;;;4974638;28;20034;-74
2023/07/14 04:20:07;;;;;;;9.68;5.47;;;14.60;99.90;;;;;;4974937;28;20540;-75
2023/07/14 04:22:33;;;;;;;11.63;9.32;;;14.60;99.90;;;;;;4974768;28;20057;-75
2023/07/14 04:24:59;;;;;;;10.30;7.40;;;14.70;99.90;;;;;;4974848;28;20118;-74
2023/07/14 04:27:26;;;;;;;8.48;5.35;;;14.70;99.90;;;;;;4974474;28;20110;-75
2023/07/14 04:29:51;;;;;;;9.10;5.35;;;14.70;99.90;;;;;;4974721;28;20521;-75
2023/07/14 04:32:17;;;;;;;8.55;5.63;;;14.70;99.90;;;;;;4974643;28;20038;-74
2023/07/14 04:34:43;;;;;;;11.95;8.75;;;14.80;99.90;;;;;;4974297;28;20038;-75
2023/07/14 04:37:09;;;;;;;10.77;7.97;;;14.80;99.90;;;;;;4974645;28;20066;-75
2023/07/14 04:39:35;;;;;;;15.18;12.13;;;14.80;99.90;;;;;;4974278;28;20082;-75
2023/07/14 04:42:01;;;;;;;14.73;11.35;;;14.90;99.90;;;;;;4974580;28;20406;-75
2023/07/14 04:44:27;;;;;;;12.55;9.40;;;14.80;99.90;;;;;;4974562;28;20043;-75
2023/07/14 04:46:53;;;;;;;15.82;12.45;;;14.80;99.90;;;;;;4974600;28;20034;-75
2023/07/14 04:49:19;;;;;;;14.73;12.45;;;14.80;99.90;;;;;;4974232;28;20105;-75
2023/07/14 04:51:45;;;;;;;15.50;12.50;;;14.80;99.90;;;;;;4973022;28;20042;-75
2023/07/14 04:54:11;;;;;;;16.02;13.18;;;14.80;99.90;;;;;;4973113;28;20557;-75
2023/07/14 04:56:39;;;;;;;17.15;12.77;;;14.80;99.90;;;;;;4974029;28;20039;-75
2023/07/14 04:59:07;;;;;;;14.48;11.63;;;14.80;99.90;;;;;;4974255;28;20378;-74
2023/07/14 05:01:33;;;;;;;15.32;11.55;;;14.90;99.90;;;;;;4974404;28;20046;-75
2023/07/14 05:03:58;;;;;;;18.58;12.88;;;14.90;99.90;;;;;;4974403;28;20039;-74
2023/07/14 05:06:24;;;;;;;17.08;12.90;;;15.10;99.90;;;;;;4974219;28;20399;-75
2023/07/14 05:08:50;;;;;;;15.10;13.50;;;15.30;99.90;;;;;;4977961;28;20045;-74
2023/07/14 05:11:16;;;;;;;17.25;12.63;;;15.50;99.90;;;;;;4976650;28;20046;-75
2023/07/14 05:13:42;;;;;;;15.98;12.98;;;15.90;99.90;;;;;;4976529;28;20407;-73
2023/07/14 05:16:08;;;;;;;17.65;13.05;;;16.10;99.90;;;;;;4978135;28;20093;-73
2023/07/14 05:18:34;;;;;;;16.75;14.82;;;16.20;99.90;;;;;;4977767;28;20046;-73
2023/07/14 05:21:04;;;;;;;18.00;16.08;;;16.30;99.90;;;;;;4976528;28;20038;-73
2023/07/14 05:23:31;;;;;;;20.05;15.50;;;16.40;99.90;;;;;;4977711;28;20042;-75
2023/07/14 05:25:57;;;;;;;20.42;16.35;;;16.60;99.90;;;;;;4977742;28;20046;-72
2023/07/14 05:28:24;;;;;;;18.55;15.95;;;16.70;99.90;;;;;;4977488;28;20046;-75
2023/07/14 05:30:51;;;;;;;18.00;14.93;;;16.80;99.90;;;;;;4977506;28;20058;-74
2023/07/14 05:33:18;;;;;;;17.13;13.85;;;17.00;99.90;;;;;;4977803;28;20043;-75
2023/07/14 05:35:45;;;;;;;19.10;13.55;;;17.10;99.90;;;;;;4977458;28;20049;-73
2023/07/14 05:38:11;;;;;;;17.15;12.68;;;17.10;99.90;;;;;;4976452;28;20053;-73
2023/07/14 05:40:37;;;;;;;15.32;12.00;;;17.00;99.90;;;;;;4960155;28;20047;-74
2023/07/14 05:43:03;;;;;;;17.95;13.43;;;16.90;99.90;;;;;;4976162;28;20129;-73
2023/07/14 05:45:29;;;;;;;16.90;12.75;;;16.80;99.90;;;;;;4976363;28;20463;-73
2023/07/14 05:47:55;;;;;;;15.52;11.88;;;16.80;99.90;;;;;;4977541;28;20078;-73
2023/07/14 05:50:21;;;;;;;17.88;12.50;;;16.70;99.90;;;;;;4976465;28;20043;-73
2023/07/14 05:52:47;;;;;;;16.73;13.13;;;16.70;99.90;;;;;;4977441;28;20038;-73
2023/07/14 05:55:14;;;;;;;16.20;13.70;;;16.70;99.90;;;;;;4977278;28;20031;-73
2023/07/14 05:57:40;;;;;;;14.98;12.32;;;16.70;99.90;;;;;;4976629;28;20046;-73
2023/07/14 06:00:16;;;;;;;18.10;12.98;;;16.70;99.90;;;;;;4978631;28;20125;-74
2023/07/14 06:02:51;;;;;;;18.42;12.32;;;16.80;99.90;;;;;;4978320;28;20050;-73
2023/07/14 06:05:17;;;;;;;17.45;13.07;;;16.80;99.90;;;;;;4979049;28;20125;-72
2023/07/14 06:07:43;;;;;;;17.25;12.32;;;16.90;99.90;;;;;;4979206;28;20043;-74
2023/07/14 06:10:11;;;;;;;17.25;13.30;;;16.90;99.90;;;;;;4977748;28;20049;-72
2023/07/14 06:12:37;;;;;;;17.10;13.02;;;16.90;99.90;;;;;;4977058;28;20043;-72
2023/07/14 06:15:03;;;;;;;17.40;12.43;;;17.00;99.90;;;;;;4978220;28;20047;-72
2023/07/14 06:17:29;;;;;;;15.60;12.20;;;17.00;99.90;;;;;;4979773;28;20066;-72
2023/07/14 06:19:55;;;;;;;15.98;12.20;;;17.10;99.90;;;;;;4979853;28;20483;-73
2023/07/14 06:22:22;;;;;;;16.58;12.75;;;17.20;99.90;;;;;;4980412;28;20086;-73
2023/07/14 06:24:48;;;;;;;14.98;11.90;;;17.50;99.90;;;;;;4980202;28;20038;-73
2023/07/14 06:27:15;;;;;;;14.55;11.25;;;17.70;99.90;;;;;;4983229;28;20053;-73
2023/07/14 06:29:41;;;;;;;13.73;11.30;;;17.70;99.90;;;;;;4981805;28;20057;-72
2023/07/14 06:32:07;;;;;;;16.98;11.65;;;17.80;99.90;;;;;;4978428;28;20483;-74
2023/07/14 06:34:33;;;;;;;14.25;10.10;;;17.90;99.90;;;;;;4976557;28;20100;-74
2023/07/14 06:36:59;;;;;;;14.80;10.32;;;18.00;99.90;;;;;;4975877;28;20042;-74
2023/07/14 06:39:25;;;;;;;11.65;9.23;;;18.20;99.90;;;;;;4975849;28;20064;-74
2023/07/14 06:41:51;;;;;;;13.02;9.73;;;18.30;99.90;;;;;;4976129;28;20490;-74
2023/07/14 06:44:16;;;;;;;14.13;9.90;;;18.40;99.90;;;;;;4977133;28;20047;-74
2023/07/14 06:46:43;;;;;;;14.38;9.48;;;18.60;99.90;;;;;;4975874;28;20050;-74
2023/07/14 06:49:10;;;;;;;12.68;8.38;;;19.00;99.90;;;;;;4976850;28;20515;-75
2023/07/14 06:51:35;;;;;;;10.50;6.95;;;19.60;99.90;;;;;;4976707;28;20043;-75
2023/07/14 06:54:01;;;;;;;12.75;7.63;;;20.20;99.90;;;;;;4977048;28;20050;-75
2023/07/14 06:56:27;;;;;;;11.02;6.50;;;20.70;99.90;;;;;;4975537;28;20046;-75
2023/07/14 06:58:53;;;;;;;10.77;5.80;;;21.10;99.90;;;;;;4976124;28;20043;-74
2023/07/14 07:01:21;;;;;;;10.90;6.13;;;21.10;99.90;;;;;;4975201;28;20065;-75
2023/07/14 07:03:47;;;;;;;10.38;6.00;;;21.40;99.90;;;;;;4976394;28;20039;-74
2023/07/14 07:06:16;;;;;;;11.35;5.85;;;21.70;99.90;;;;;;4976258;28;20038;-75
2023/07/14 07:08:42;;;;;;;10.68;5.82;;;21.80;99.90;;;;;;4975190;28;20043;-74
2023/07/14 07:11:13;;;;;;;10.68;4.88;;;22.20;99.90;;;;;;4976067;28;20112;-75
2023/07/14 07:13:39;;;;;;;16.33;4.85;;;22.60;99.90;;;;;;4975853;28;20059;-75
2023/07/14 07:16:05;;;;;;;8.90;4.57;;;23.00;99.90;;;;;;4974874;28;20047;-74
2023/07/14 07:18:30;;;;;;;9.50;5.15;;;22.90;99.90;;;;;;4974813;28;20046;-74
2023/07/14 07:20:56;;;;;;;9.30;4.70;;;23.30;99.90;;;;;;4975707;28;20069;-74
2023/07/14 07:23:22;;;;;;;8.10;3.90;;;23.50;99.90;;;;;;4974297;28;20046;-75
2023/07/14 07:25:49;;;;;;;8.48;4.55;;;23.50;99.90;;;;;;4975811;28;20046;-74
2023/07/14 07:28:15;;;;;;;8.35;4.30;;;23.50;99.90;;;;;;4975436;28;20130;-75
2023/07/14 07:30:41;;;;;;;8.43;4.10;;;24.10;99.90;;;;;;4975223;28;20403;-75
2023/07/14 07:33:07;;;;;;;8.90;4.28;;;24.10;99.90;;;;;;4975718;28;20039;-75
2023/07/14 07:35:37;;;;;;;9.68;4.90;;;24.40;99.90;;;;;;4975599;28;20070;-74
2023/07/14 07:38:03;;;;;;;9.43;4.60;;;24.60;99.90;;;;;;4975548;28;20081;-74
2023/07/14 07:40:28;;;;;;;8.00;4.60;;;24.50;99.90;;;;;;4975597;28;20074;-74
2023/07/14 07:42:54;;;;;;;9.43;4.82;;;24.40;99.90;;;;;;4975108;28;20484;-73
2023/07/14 07:45:20;;;;;;;9.23;4.80;;;24.50;99.90;;;;;;4973992;28;20133;-74
2023/07/14 07:47:47;;;;;;;7.82;4.43;;;24.60;99.90;;;;;;4975337;28;20050;-75
2023/07/14 07:50:13;;;;;;;9.32;4.32;;;24.70;99.90;;;;;;4973766;28;20106;-75
2023/07/14 07:52:38;;;;;;;8.85;4.68;;;25.00;99.90;;;;;;4973977;28;20034;-75
2023/07/14 07:55:05;;;;;;;9.75;5.10;;;25.00;99.00;;;;;;4973732;28;20043;-75
2023/07/14 07:57:31;;;;;;;8.65;5.20;;;24.90;99.20;;;;;;4975237;28;20166;-74
2023/07/14 07:59:57;;;;;;;10.38;5.70;;;25.00;99.50;;;;;;4975264;28;20070;-74
2023/07/14 08:02:23;;;;;;;9.20;5.22;;;24.90;97.00;;;;;;4974820;28;20149;-75
2023/07/14 08:04:49;;;;;;;9.27;5.45;;;24.80;98.30;;;;;;4973957;28;20042;-75
2023/07/14 08:07:16;;;;;;;9.73;4.63;;;24.80;99.40;;;;;;4957515;28;20050;-75
2023/07/14 08:09:43;;;;;;;10.02;4.70;;;24.70;97.90;;;;;;4975027;28;20490;-75
2023/07/14 08:12:09;;;;;;;8.75;4.50;;;24.40;98.10;;;;;;4974963;28;20113;-73
2023/07/14 08:14:54;;;;;;;8.75;4.72;;;24.00;97.90;;;;;;4974566;28;20171;-74
2023/07/14 08:17:27;;;;;;;7.68;4.80;;;23.70;98.80;;;;;;4974944;28;20190;-74
2023/07/14 08:19:53;;;;;;;10.07;4.82;;;23.70;99.90;;;;;;4974953;28;20096;-75
2023/07/14 08:22:20;;;;;;;8.40;4.35;;;23.90;99.70;;;;;;4973457;28;20050;-74
2023/07/14 08:24:46;;;;;;;9.27;4.80;;;23.80;99.30;;;;;;4974581;28;20047;-74
2023/07/14 08:27:12;;;;;;;8.38;4.65;;;23.90;99.30;;;;;;4974426;28;20109;-74
2023/07/14 08:29:38;;;;;;;9.43;4.45;;;23.60;99.00;;;;;;4974465;28;20042;-74
2023/07/14 08:32:04;;;;;;;7.72;4.10;;;23.30;97.60;;;;;;4974345;28;20214;-73
2023/07/14 08:34:29;;;;;;;8.43;3.95;;;22.90;98.60;;;;;;4974613;28;20035;-74
2023/07/14 08:36:56;;;;;;;9.35;4.20;;;22.90;99.40;;;;;;4974733;28;20045;-73
2023/07/14 08:39:22;;;;;;;7.70;4.15;;;23.20;99.60;;;;;;4974233;28;20105;-74
2023/07/14 08:41:57;;;;;;;8.13;4.00;;;23.40;99.00;;;;;;4972649;28;20049;-74
2023/07/14 08:45:07;;;;;;;8.18;4.50;;;23.60;98.70;;;;;;4974492;28;20046;-74
2023/07/14 08:47:48;;;;;;;9.10;3.90;;;23.70;98.90;;;;;;4914786;29;20043;-74
2023/07/14 08:50:20;;;;;;;8.32;4.30;;;23.50;98.40;;;;;;4914850;29;20043;-74
2023/07/14 08:52:48;;;;;;;8.63;4.40;;;23.60;98.40;;;;;;4953767;28;20107;-74
2023/07/14 08:55:27;;;;;;;6.95;4.07;;;23.90;98.80;;;;;;4974502;28;20070;-74
2023/07/14 08:57:56;;;;;;;7.78;3.35;;;24.20;98.20;;;;;;4973234;28;20051;-74
2023/07/14 09:00:36;;;;;;;8.43;3.30;;;24.20;96.80;;;;;;4974367;28;20047;-73
2023/07/14 09:03:22;;;;;;;7.25;3.08;;;24.40;97.70;;;;;;4974431;28;20506;-75
2023/07/14 09:05:58;;;;;;;8.18;3.53;;;24.40;96.20;;;;;;4974271;28;20514;-76
2023/07/14 09:08:29;;;;;;;8.40;3.22;;;24.60;95.50;;;;;;4973142;28;20181;-76
2023/07/14 09:11:19;;;;;;;7.47;3.10;;;24.60;96.10;;;;;;4974272;28;20050;-75
2023/07/14 09:13:59;;;;;;;8.02;3.20;;;24.70;95.40;;;;;;4973912;28;20535;-74
2023/07/14 09:16:31;;;;;;;7.18;2.70;;;24.90;95.20;;;;;;4974355;28;20502;-75
2023/07/14 09:19:21;;;;;;;6.28;2.90;;;25.00;94.90;;;;;;4972776;28;20039;-75
2023/07/14 09:22:04;;;;;;;7.40;2.60;;;25.10;93.70;;;;;;4974312;28;20480;-75
2023/07/14 09:24:52;;;;;;;7.82;2.70;;;25.30;94.00;;;;;;4974250;28;20042;-72
2023/07/14 09:27:25;;;;;;;10.88;3.08;;;25.40;92.90;;;;;;4973859;28;20102;-74
2023/07/14 09:29:52;;;;;;;11.38;2.92;;;25.40;93.90;;;;;;4972587;28;20050;-74
2023/07/14 09:32:35;;;;;;;9.02;2.65;;;25.50;94.70;;;;;;4972608;28;20045;-76
2023/07/14 09:35:24;;;;;;;6.65;2.78;;;25.50;93.20;;;;;;4974327;28;20034;-75
2023/07/14 09:37:53;;;;;;;7.50;2.72;;;25.70;93.00;;;;;;4974043;28;20031;-76
2023/07/14 09:40:34;;;;;;;7.88;2.95;;;25.50;91.50;;;;;;4972606;28;20046;-76
2023/07/14 09:43:01;;;;;;;8.10;2.90;;;25.50;93.00;;;;;;4974081;28;20121;-75
2023/07/14 09:45:33;;;;;;;6.80;2.70;;;25.70;93.20;;;;;;4972813;28;20487;-76
2023/07/14 09:48:08;;;;;;;5.82;2.85;;;25.70;91.80;;;;;;4972680;28;20043;-76
2023/07/14 09:50:37;;;;;;;7.55;2.90;;;25.50;91.50;;;;;;4973611;28;20059;-76
2023/07/14 09:53:08;;;;;;;6.50;2.45;;;25.70;92.30;;;;;;4972829;28;20113;-74
2023/07/14 09:55:53;;;;;;;8.05;2.70;;;25.80;91.90;;;;;;4977250;28;20097;-75
2023/07/14 09:58:28;;;;;;;8.68;2.88;;;25.80;90.50;;;;;;4976001;28;20118;-75
2023/07/14 10:00:57;;;;;;;8.63;3.00;;;25.40;90.00;;;;;;4977249;28;20042;-74
2023/07/14 10:03:29;;;;;;;7.82;2.80;;;24.80;90.00;;;;;;4977277;28;20122;-73
2023/07/14 10:06:13;;;;;;;7.38;2.72;;;24.30;91.00;;;;;;4977228;28;20108;-74
2023/07/14 10:08:46;;;;;;;8.23;2.83;;;23.90;91.90;;;;;;4975890;28;20042;-74
2023/07/14 10:11:20;;;;;;;8.38;2.90;;;23.70;92.60;;;;;;4975688;28;20097;-75
2023/07/14 10:13:57;;;;;;;8.48;2.78;;;23.40;93.00;;;;;;4976835;28;20050;-75
2023/07/14 10:16:24;;;;;;;5.72;2.83;;;23.30;93.60;;;;;;4976784;28;20039;-75
2023/07/14 10:18:54;;;;;;;6.97;2.90;;;23.10;94.10;;;;;;4977006;28;20035;-75
2023/07/14 10:21:33;;;;;;;7.03;2.70;;;23.10;94.20;;;;;;4975823;28;20053;-73
2023/07/14 10:24:05;;;;;;;7.72;2.90;;;23.20;94.60;;;;;;4976985;28;20043;-74
2023/07/14 10:26:35;;;;;;;;;;;23.20;94.20;;;;;;4977308;28;20093;-73
2023/07/14 10:29:13;;;;;;;6.38;2.90;;;23.10;94.50;;;;;;4976841;28;19957;-74
2023/07/14 10:31:54;;;;;;;7.07;2.75;;;23.00;94.50;;;;;;4976794;28;20065;-74
2023/07/14 10:34:41;;;;;;;7.13;3.00;;;23.00;94.90;;;;;;4976789;28;20105;-74
2023/07/14 10:37:29;;;;;;;7.13;2.92;;;22.80;95.10;;;;;;4975582;28;20043;-74
2023/07/14 10:40:04;;;;;;;6.72;3.17;;;22.70;95.10;;;;;;4975284;28;20046;-74
2023/07/14 10:42:35;;;;;;;6.70;3.00;;;22.60;95.40;;;;;;4976568;28;20055;-74
2023/07/14 10:45:02;;;;;;;15.20;3.40;;;22.40;95.90;;;;;;4975090;28;20082;-75
2023/07/14 10:47:35;;;;;;;19.88;4.03;;;22.30;96.30;;;;;;4975045;28;20082;-74
2023/07/14 10:50:43;;;;;;;14.57;3.60;;;22.20;97.20;;;;;;4976470;28;20133;-74
2023/07/14 10:53:28;;;;;;;7.18;3.10;;;22.30;97.20;;;;;;4963506;28;20043;-74
2023/07/14 10:55:59;;;;;;;7.50;3.05;;;22.50;97.60;;;;;;4976062;28;20050;-74
2023/07/14 10:58:24;;;;;;;11.93;3.40;;;22.90;97.20;;;;;;4974793;28;20043;-74
2023/07/14 11:01:16;;;;;;;5.68;2.60;;;23.30;96.80;;;;;;4976334;28;20154;-73
2023/07/14 11:04:03;;;;;;;7.05;2.60;;;23.50;95.20;;;;;;4900670;29;20537;-74
2023/07/14 11:06:31;;;;;;;7.10;2.70;;;23.40;94.90;;;;;;4975936;28;20050;-75
2023/07/14 11:08:57;;;;;;;9.10;2.72;;;23.40;94.90;;;;;;4976114;28;20123;-74
2023/07/14 11:11:37;;;;;;;6.70;2.90;;;23.70;94.70;;;;;;4975672;28;20046;-73
2023/07/14 11:14:14;;;;;;;7.03;2.80;;;23.80;93.90;;;;;;4975574;28;20418;-72
2023/07/14 11:17:18;;;;;;;6.57;2.80;;;23.90;93.10;;;;;;4976266;28;20042;-72
2023/07/14 11:19:57;;;;;;;6.03;2.72;;;23.90;92.40;;;;;;4974727;28;20046;-72
2023/07/14 11:22:34;;;;;;;6.40;2.75;;;23.70;91.90;;;;;;4975436;28;20046;-72
2023/07/14 11:25:33;;;;;;;6.15;2.63;;;24.10;94.90;;;;;;4975539;28;20050;-72
2023/07/14 11:28:11;;;;;;;7.72;2.70;;;24.60;92.90;;;;;;4974229;28;20057;-72
2023/07/14 11:30:41;;;;;;;6.65;2.92;;;24.90;92.20;;;;;;4975368;28;20046;-73
2023/07/14 11:33:27;;;;;;;6.68;2.70;;;25.10;92.70;;;;;;4975754;28;20037;-72
2023/07/14 11:35:58;;;;;;;6.70;2.67;;;25.40;92.20;;;;;;4935453;28;20131;-73
2023/07/14 11:38:39;;;;;;;;;;;25.60;91.40;;;;;;4975667;28;20045;-72
2023/07/14 11:41:05;;;;;;;6.22;2.90;;;25.70;90.90;;;;;;4974034;28;19922;-72
2023/07/14 11:43:32;;;;;;;6.53;2.67;;;25.70;89.80;;;;;;4974236;28;20046;-72
2023/07/14 11:46:08;;;;;;;6.35;2.90;;;25.80;90.60;;;;;;4975476;28;20505;-72
2023/07/14 11:48:43;;;;;;;6.28;2.70;;;26.00;91.20;;;;;;4974037;28;20035;-73
2023/07/14 11:51:15;;;;;;;6.28;2.67;;;26.00;89.50;;;;;;4975081;28;20038;-73
2023/07/14 11:53:42;;;;;;;;;;;25.80;89.50;;;;;;4975803;28;20046;-73
2023/07/14 11:56:35;;;;;;;6.90;2.85;;;25.60;89.20;;;;;;4973803;28;19969;-73
2023/07/14 11:59:22;;;;;;;5.63;2.60;;;25.40;90.50;;;;;;4972517;28;20507;-73
2023/07/14 12:01:51;;;;;;;7.13;2.80;;;25.10;90.20;;;;;;4974123;28;20034;-73
2023/07/14 12:04:24;;;;;;;7.68;3.05;;;24.80;90.30;;;;;;4975136;28;20479;-73
2023/07/14 12:07:09;;;;;;;7.20;2.80;;;24.60;90.30;;;;;;4975152;28;20039;-74
2023/07/14 12:09:54;;;;;;;6.15;2.85;;;24.50;90.50;;;;;;4973655;28;20126;-74
2023/07/14 12:12:20;;;;;;;7.90;2.90;;;24.30;91.40;;;;;;4975039;28;20487;-72
2023/07/14 12:14:49;;;;;;;6.57;2.90;;;24.10;91.50;;;;;;4974284;28;20120;-72
2023/07/14 12:17:36;;;;;;;6.22;2.70;;;23.90;91.80;;;;;;4940632;28;20125;-73
2023/07/14 12:20:11;;;;;;;6.93;3.15;;;24.00;92.50;;;;;;4974663;28;20384;-74
2023/07/14 12:22:47;;;;;;;6.28;2.65;;;24.00;93.00;;;;;;4974902;28;20045;-73
2023/07/14 12:25:17;;;;;;;5.43;2.75;;;24.20;92.50;;;;;;4972980;28;20110;-73
2023/07/14 12:27:49;;;;;;;6.72;2.63;;;24.60;92.10;;;;;;4973497;28;20117;-74
2023/07/14 12:30:28;;;;;;;5.85;2.90;;;24.80;91.00;;;;;;4973288;28;20043;-74
2023/07/14 12:33:02;;;;;;;5.55;2.50;;;24.80;90.50;;;;;;4974795;28;20109;-74
2023/07/14 12:35:30;;;;;;;5.45;2.30;;;25.00;90.80;;;;;;4973224;28;20049;-74
2023/07/14 12:38:11;;;;;;;5.55;2.60;;;25.40;90.50;;;;;;4974705;28;20059;-74
2023/07/14 12:40:38;;;;;;;6.72;2.45;;;25.50;89.90;;;;;;4974689;28;20106;-74
2023/07/14 12:43:32;;;;;;;5.55;2.58;;;25.50;86.90;;;;;;4973391;28;20046;-74
2023/07/14 12:46:01;;;;;;;5.88;2.60;;;25.50;87.10;;;;;;4974432;28;20046;-75
2023/07/14 12:48:30;;;;;;;6.60;2.70;;;25.40;87.60;;;;;;4974164;28;20031;-74
2023/07/14 12:50:58;;;;;;;6.60;2.60;;;25.10;89.00;;;;;;4974198;28;20042;-73
2023/07/14 12:53:28;;;;;;;5.82;2.63;;;24.90;87.90;;;;;;4973047;28;20081;-73
2023/07/14 12:55:54;;;;;;;6.38;2.47;;;24.80;89.20;;;;;;4974363;28;20038;-74
2023/07/14 12:58:24;;;;;;;6.60;2.75;;;24.70;89.40;;;;;;4974503;28;20034;-73
2023/07/14 13:00:54;;;;;;;7.45;2.60;;;24.60;89.60;;;;;;4974179;28;20495;-74
2023/07/14 13:03:21;;;;;;;6.93;2.50;;;24.60;89.40;;;;;;4973212;28;20558;-74